Barbarossa — ZDFA4 — position and weather

sailwx.info

Track history (hours):
 
Tides and Currents Weather Stations Pressure Air Temp Water Temp Dewpoint Dewpoint Depression Visibility Wind Speed Wind Dir Waves Ship Positions

Barbarossa

Last reported at 2017-Mar-22 09:33 UTC. Time now 2017-Mar-25 17:32 UTC.
Position N 39°15' W 009°48'.

Length 83 m; draft 4.1 m.

Type: Cargo ship. MMSI: 236029000.

Date/timePositionNaut miles runAvg speedWind from/ knotsBaromVisibWave heightAir tempDewpointWater temp
2017-Mar-22 09:33N 39°15' W 009°48'10 9.6
2017-Mar-22 08:33N 39°06' W 009°49'1010.3
2017-Mar-22 07:33N 38°56' W 009°51'1110.8
2017-Mar-22 06:33N 38°45' W 009°51'1110.5
2017-Mar-22 05:33N 38°34' W 009°49'1110.6
2017-Mar-22 04:33N 38°24' W 009°46'1110.5
2017-Mar-22 03:33N 38°14' W 009°43'  
2017-Mar-17 15:27N 35°55' W 005°49'1011.2
2017-Mar-17 14:32N 35°57' W 005°37'1110.9
2017-Mar-17 13:33N 35°60' W 005°24'1111.0
2017-Mar-17 12:33N 36°02' W 005°11'22610.1
2017-Mar-16 14:05N 37°24' W 000°48'1710.8
2017-Mar-16 12:32N 37°35' W 000°33'1110.8
2017-Mar-16 11:33N 37°44' W 000°25'14610.3
2017-Mar-15 21:19N 39°44' E 001°23'810.5
2017-Mar-15 20:33N 39°50' E 001°30'1110.6
2017-Mar-15 19:33N 39°58' E 001°38'1010.4
2017-Mar-15 18:33N 40°06' E 001°47'1110.5
2017-Mar-15 17:33N 40°15' E 001°54'1110.8
2017-Mar-15 16:33N 40°23' E 002°04'1110.9
2017-Mar-15 15:33N 40°32' E 002°13'1010.2
2017-Mar-15 14:33N 40°40' E 002°21'10 9.9
2017-Mar-15 13:33N 40°48' E 002°28'1110.6
2017-Mar-15 12:33N 40°57' E 002°37'1110.9
2017-Mar-15 11:33N 41°05' E 002°46'  
Track history (hours):
 
Tides and Currents Weather Stations Pressure Air Temp Water Temp Dewpoint Dewpoint Depression Visibility Wind Speed Wind Dir Waves Ship Positions

Barbarossa

Last reported at 2017-Mar-22 09:33 UTC. Time now 2017-Mar-25 17:32 UTC.
Position N 39°15' W 009°48'.

Length 83 m; draft 4.1 m.

Type: Cargo ship. MMSI: 236029000.

Date/timePositionNaut miles runAvg speedWind from/ knotsBaromVisibWave heightAir tempDewpointWater temp
2017-Mar-22 09:33N 39°15' W 009°48'10 9.6
2017-Mar-22 08:33N 39°06' W 009°49'1010.3
2017-Mar-22 07:33N 38°56' W 009°51'1110.8
2017-Mar-22 06:33N 38°45' W 009°51'1110.5
2017-Mar-22 05:33N 38°34' W 009°49'1110.6
2017-Mar-22 04:33N 38°24' W 009°46'1110.5
2017-Mar-22 03:33N 38°14' W 009°43'  
2017-Mar-17 15:27N 35°55' W 005°49'1011.2
2017-Mar-17 14:32N 35°57' W 005°37'1110.9
2017-Mar-17 13:33N 35°60' W 005°24'1111.0
2017-Mar-17 12:33N 36°02' W 005°11'22610.1
2017-Mar-16 14:05N 37°24' W 000°48'1710.8
2017-Mar-16 12:32N 37°35' W 000°33'1110.8
2017-Mar-16 11:33N 37°44' W 000°25'14610.3
2017-Mar-15 21:19N 39°44' E 001°23'810.5
2017-Mar-15 20:33N 39°50' E 001°30'1110.6
2017-Mar-15 19:33N 39°58' E 001°38'1010.4
2017-Mar-15 18:33N 40°06' E 001°47'1110.5
2017-Mar-15 17:33N 40°15' E 001°54'1110.8
2017-Mar-15 16:33N 40°23' E 002°04'1110.9
2017-Mar-15 15:33N 40°32' E 002°13'1010.2
2017-Mar-15 14:33N 40°40' E 002°21'10 9.9
2017-Mar-15 13:33N 40°48' E 002°28'1110.6
2017-Mar-15 12:33N 40°57' E 002°37'1110.9
2017-Mar-15 11:33N 41°05' E 002°46'  

Dump ship's entire track history